KSTL/STL METAR and TAF weather

Enter ICAO airport designator
Station Type Date Time Source
KSTL METAR 2024/04/17 18:51 UTC NOAA

KSTL 171851Z 28013G24KT 10SM FEW050 FEW250 27/09 A2986 RMK AO2 SLP102 T02670094


Station Type Date Time Source
KSTL Decoded METAR 2024/04/17 18:51 UTC NOAA

LAMBERT-ST LOUIS INTERNATIONAL AIRPORT , MO, United States (KSTL) 38-45N 90-22W 171M
Apr 17, 2024 - 02:51 PM EDT / 2024.04.17 1851 UTC
Wind: from the W (280 degrees) at 15 MPH (13 KT) gusting to 28 MPH (24 KT):0
Visibility: 10 mile(s):0
Sky conditions: mostly clear
Temperature: 80.1 F (26.7 C)
Dew Point: 48.9 F (9.4 C)
Relative Humidity: 33%
Pressure (altimeter): 29.86 in. Hg (1011 hPa)
ob: KSTL 171851Z 28013G24KT 10SM FEW050 FEW250 27/09 A2986 RMK AO2 SLP102 T02670094
cycle: 19

Station Type Date Time Source
KSTL TAF 2024/04/17 18:36 UTC NOAA